Latest Weather Observations for Sheoaks

IDV60801

Issued at 1:02 pm EDT Monday 23 January 2017 (issued every 30 minutes, with the page automatically refreshed every 10 minutes)

About weather observations | Map of weather stations | Latest weather observations for VIC | Other Formats
Station Details ID: 087168 Name: SHEOAKS Lat: -37.91 Lon: 144.13 Height: 236.7 m
Data from the previous 72 hours. | See also: Recent months at Sheoaks
Date/Time
EDT
Temp
°C
App
Temp
°C
Dew
Point
°C
Rel
Hum
%
Delta-T
°C
Wind Press
QNH
hPa
Press
MSL
hPa
Rain since
9am
mm
Dir  Spd
km/h
Gust
km/h
Spd
kts
Gust
kts
23/01:00pm 34.1 28.7 4.7 16 15.8 NW 22 32 12 17 1005.0 1004.3 0.0
23/12:30pm 33.8 28.6 5.4 17 15.4 NNW 22 32 12 17 1005.0 1004.3 0.0
23/12:00pm 33.7 28.1 5.3 17 15.4 NNW 24 35 13 19 1005.3 1004.6 0.0
23/11:30am 34.1 29.5 5.6 17 15.5 NW 19 28 10 15 1005.6 1004.9 0.0
23/11:00am 33.5 28.6 5.1 17 15.3 NNW 20 28 11 15 1005.9 1005.2 0.0
23/10:30am 32.6 28.5 6.0 19 14.4 NNW 17 28 9 15 1006.1 1005.4 0.0
23/10:00am 31.3 29.5 9.5 26 12.5 NNW 9 17 5 9 1006.6 1005.9 0.0
23/09:30am 30.0 28.0 10.0 29 11.4 N 11 17 6 9 1006.8 1006.1 0.0
23/09:00am 27.8 26.2 11.4 36 9.5 N 11 15 6 8 1007.0 1006.3 0.0
23/08:30am 25.9 24.2 11.3 40 8.4 N 11 20 6 11 1006.6 1005.9 0.0
23/08:00am 24.1 22.5 11.4 45 7.2 N 11 17 6 9 1006.6 1005.9 0.0
23/07:30am 22.1 20.5 11.5 51 6.0 N 11 15 6 8 1006.6 1005.9 0.0
23/07:00am 21.3 20.0 11.1 52 5.7 N 9 11 5 6 1006.8 1006.1 0.0
23/06:30am 20.1 18.4 11.3 57 4.9 N 11 15 6 8 1006.9 1006.2 0.0
23/06:00am 20.1 19.3 11.6 58 4.8 N 7 9 4 5 1007.2 1006.4 0.0
23/05:30am 20.5 20.5 11.2 55 5.2 NW 2 4 1 2 1007.6 1006.8 0.0
23/05:00am 21.5 20.6 11.2 52 5.8 N 7 7 4 4 1007.2 1006.4 0.0
23/04:30am 21.2 20.1 11.8 55 5.3 NNW 9 13 5 7 1007.0 1006.3 0.0
23/04:00am 20.4 19.5 12.6 61 4.5 N 9 13 5 7 1007.4 1006.6 0.0
23/03:30am 19.4 20.1 14.4 73 2.9 NNE 4 9 2 5 1007.8 1007.0 0.0
23/03:00am 17.0 17.5 15.0 88 1.2 N 6 7 3 4 1008.2 1007.4 0.0
23/02:30am 16.8 18.4 15.0 89 1.1 CALM 0 0 0 0 1008.3 1007.5 0.0
23/02:00am 16.5 17.6 14.5 88 1.2 SE 2 4 1 2 1008.7 1008.0 0.0
23/01:30am 16.3 17.7 14.3 88 1.2 CALM 0 2 0 1 1009.0 1008.3 0.0
23/01:00am 16.2 16.7 14.0 87 1.3 NE 4 6 2 3 1009.3 1008.6 0.0
23/12:30am 16.6 16.9 14.4 87 1.3 E 6 7 3 4 1009.8 1009.1 0.0
23/12:00am 16.6 17.3 14.4 87 1.3 ESE 4 6 2 3 1010.2 1009.5 0.0
 
Date/Time
EDT
Temp
°C
App
Temp
°C
Dew
Point
°C
Rel
Hum
%
Delta-T
°C
Wind Press
QNH
hPa
Press
MSL
hPa
Rain since
9am
mm
Dir  Spd
km/h
Gust
km/h
Spd
kts
Gust
kts
22/11:30pm 16.6 17.1 14.1 85 1.4 ENE 4 6 2 3 1011.1 1010.4 0.0
22/11:00pm 17.1 17.2 14.0 82 1.8 ESE 6 7 3 4 1011.3 1010.6 0.0
22/10:30pm 17.3 17.2 13.8 80 2.0 E 7 9 4 5 1011.4 1010.7 0.0
22/10:00pm 17.8 17.6 13.5 76 2.5 E 7 9 4 5 1011.9 1011.1 0.0
22/09:30pm 18.7 18.5 13.6 72 2.9 SE 7 9 4 5 1012.1 1011.3 0.0
22/09:00pm 19.6 19.1 13.8 69 3.4 ESE 9 13 5 7 1011.4 1010.7 0.0
22/08:30pm 20.9 20.9 14.1 65 4.0 ESE 7 11 4 6 1011.8 1011.0 0.0
22/08:00pm 21.9 21.0 13.8 60 4.8 ESE 11 15 6 8 1011.9 1011.1 0.0
22/07:30pm 23.5 21.3 13.4 53 5.9 ESE 17 24 9 13 1011.7 1010.9 0.0
22/07:00pm 24.5 21.6 12.8 48 6.8 ESE 20 24 11 13 1011.3 1010.6 0.0
22/06:30pm 25.6 22.7 12.4 43 7.7 SE 19 28 10 15 1011.4 1010.7 0.0
22/06:00pm 26.7 23.5 12.0 40 8.5 ESE 20 28 11 15 1011.3 1010.6 0.0
22/05:30pm 27.8 24.3 10.9 35 9.7 SE 20 28 11 15 1011.7 1010.9 0.0
22/05:00pm 28.2 24.1 8.5 29 10.9 ESE 20 30 11 16 1012.1 1011.3 0.0
22/04:30pm 28.4 24.1 9.2 30 10.7 SE 22 28 12 15 1012.3 1011.6 0.0
22/04:00pm 28.4 24.5 9.6 31 10.6 SE 20 28 11 15 1012.5 1011.8 0.0
22/03:30pm 28.9 25.2 9.6 30 10.9 SE 19 30 10 16 1012.8 1012.1 0.0
22/03:00pm 28.6 25.5 10.3 32 10.4 ESE 17 24 9 13 1013.2 1012.5 0.0
22/02:30pm 28.9 25.7 10.1 31 10.7 SE 17 28 9 15 1013.4 1012.7 0.0
22/02:00pm 28.4 25.8 9.2 30 10.7 E 13 24 7 13 1013.5 1012.8 0.0
22/01:30pm 27.6 25.7 9.0 31 10.3 E 9 15 5 8 1013.7 1013.0 0.0
22/01:00pm 26.5 24.0 9.8 35 9.3 E 13 22 7 12 1014.1 1013.4 0.0
22/12:30pm 26.3 24.4 10.5 37 8.9 E 11 19 6 10 1014.5 1013.8 0.0
22/12:00pm 25.2 22.9 10.3 39 8.4 ENE 13 22 7 12 1014.8 1014.1 0.0
22/11:30am 23.9 21.5 10.2 42 7.6 ENE 13 20 7 11 1014.9 1014.2 0.0
22/11:00am 22.4 20.2 10.9 48 6.4 ENE 13 24 7 13 1015.0 1014.3 0.0
22/10:30am 21.3 19.8 11.9 55 5.3 ENE 11 19 6 10 1015.4 1014.7 0.0
22/10:00am 19.6 17.5 11.1 58 4.7 E 13 20 7 11 1015.8 1015.2 0.0
22/09:30am 18.6 16.7 11.7 64 3.8 E 13 17 7 9 1016.4 1015.7 0.0
22/09:00am 17.3 16.0 12.6 74 2.6 E 11 15 6 8 1016.6 1015.9 0.0
22/08:30am 15.7 15.7 14.2 91 0.9 ENE 7 9 4 5 1016.8 1016.1 0.0
22/08:00am 13.5 13.7 13.0 97 0.3 NNE 4 7 2 4 1016.6 1015.9 0.0
22/07:30am 10.5 9.2 9.9 96 0.3 N 7 7 4 4 1016.6 1015.9 0.0
22/07:00am 9.5 7.9 8.9 96 0.3 N 7 9 4 5 1016.5 1015.8 0.0
22/06:30am 9.2 7.6 8.6 96 0.3 NNW 7 7 4 4 1016.4 1015.7 0.0
22/06:00am 9.2 7.7 8.6 96 0.3 N 6 7 3 4 1016.3 1015.6 0.0
22/05:30am 9.4 7.8 8.8 96 0.3 N 7 9 4 5 1016.4 1015.7 0.0
22/05:00am 9.6 8.1 9.0 96 0.3 NNW 7 9 4 5 1016.2 1015.5 0.0
22/04:30am 9.2 7.5 8.4 95 0.4 NNW 7 9 4 5 1016.2 1015.5 0.0
22/04:00am 8.9 6.8 8.1 95 0.4 N 9 9 5 5 1015.7 1015.0 0.0
22/03:30am 9.2 8.1 8.4 95 0.4 NNE 4 4 2 2 1015.7 1015.0 0.0
22/03:00am 9.4 7.9 8.5 94 0.4 N 6 6 3 3 1016.0 1015.3 0.0
22/02:30am 9.8 8.8 8.9 94 0.4 NNE 4 4 2 2 1016.3 1015.6 0.0
22/02:00am 10.0 8.7 9.1 94 0.5 N 6 6 3 3 1016.5 1015.8 0.0
22/01:30am 10.3 8.8 9.2 93 0.6 N 7 7 4 4 1016.8 1016.1 0.0
22/01:00am 10.9 10.9 9.7 92 0.6 CALM 0 0 0 0 1017.0 1016.3 0.0
22/12:30am 11.4 11.1 10.0 91 0.7 NNE 2 4 1 2 1017.2 1016.5 0.0
22/12:00am 12.0 11.3 10.1 88 1.0 ENE 4 4 2 2 1017.1 1016.4 0.0
 
Date/Time
EDT
Temp
°C
App
Temp
°C
Dew
Point
°C
Rel
Hum
%
Delta-T
°C
Wind Press
QNH
hPa
Press
MSL
hPa
Rain since
9am
mm
Dir  Spd
km/h
Gust
km/h
Spd
kts
Gust
kts
21/11:30pm 12.4 11.3 10.1 86 1.2 ENE 6 6 3 3 1017.1 1016.4 0.0
21/11:00pm 13.0 12.4 10.4 84 1.4 ESE 4 6 2 3 1017.3 1016.6 0.0
21/10:30pm 13.5 12.6 10.5 82 1.6 SE 6 7 3 4 1017.5 1016.8 0.0
21/10:00pm 13.9 12.8 10.5 80 1.8 SE 7 9 4 5 1017.3 1016.6 0.0
21/09:30pm 14.7 12.8 10.5 76 2.2 ESE 11 15 6 8 1017.1 1016.4 0.0
21/09:00pm 15.5 13.2 10.5 72 2.7 ESE 13 19 7 10 1016.8 1016.1 0.0
21/08:30pm 16.5 14.2 10.4 67 3.3 SE 13 17 7 9 1016.7 1016.0 0.0
21/08:00pm 17.8 15.2 10.7 63 3.9 ESE 15 20 8 11 1016.4 1015.7 0.0
21/07:30pm 18.6 15.6 10.7 60 4.3 SE 17 24 9 13 1016.0 1015.3 0.0
21/07:00pm 19.6 16.6 10.6 56 4.9 ESE 17 30 9 16 1015.6 1014.9 0.0
21/06:30pm 20.4 16.9 10.2 52 5.6 SE 19 26 10 14 1015.4 1014.7 0.0
21/06:00pm 21.4 18.3 10.3 49 6.1 SE 17 24 9 13 1015.2 1014.5 0.0
21/05:30pm 22.2 19.9 10.4 47 6.5 SE 13 20 7 11 1015.1 1014.4 0.0
21/05:00pm 22.5 20.2 10.3 46 6.7 SE 13 22 7 12 1015.2 1014.5 0.0
21/04:30pm 22.7 20.4 10.5 46 6.8 ESE 13 24 7 13 1015.3 1014.6 0.0
21/04:00pm 23.4 21.1 10.5 44 7.2 SE 13 22 7 12 1015.4 1014.7 0.0
21/03:30pm 22.6 20.6 10.1 45 6.9 SE 11 32 6 17 1015.4 1014.7 0.0
21/03:00pm 22.5 20.1 8.6 41 7.5 SSW 11 20 6 11 1015.4 1014.7 0.0
21/02:30pm 22.6 20.1 8.0 39 7.8 SSE 11 22 6 12 1015.5 1014.8 0.0
21/02:00pm 21.5 18.9 7.7 41 7.2 S 11 22 6 12 1015.6 1014.9 0.0
21/01:30pm 20.7 18.0 7.3 42 6.9 S 11 24 6 13 1015.7 1015.0 0.0
21/01:00pm 20.4 18.5 7.4 43 6.7 SE 7 17 4 9 1016.0 1015.3 0.0
21/12:30pm 20.1 18.2 7.5 44 6.5 SE 7 13 4 7 1016.3 1015.6 0.0
21/12:00pm 19.3 17.1 8.0 48 5.9 S 9 19 5 10 1016.5 1015.8 0.0
21/11:30am 18.2 15.9 7.6 50 5.4 WSW 9 15 5 8 1016.4 1015.7 0.0
21/11:00am 17.5 15.6 7.5 52 5.1 SE 7 15 4 8 1016.3 1015.6 0.0
21/10:30am 16.0 13.8 8.0 59 4.1 SSW 9 15 5 8 1016.1 1015.4 0.0
21/10:00am 17.2 15.4 9.4 60 4.1 SSW 9 17 5 9 1016.1 1015.4 0.0
21/09:30am 15.6 13.8 9.5 67 3.2 SW 9 19 5 10 1015.7 1015.0 0.0
21/09:00am 14.1 11.8 8.9 71 2.7 SW 11 17 6 9 1015.6 1014.9 0.2
21/08:30am 13.2 11.3 8.9 75 2.2 WSW 9 15 5 8 1015.2 1014.5 0.2
21/08:00am 13.0 11.5 9.3 78 1.9 W 7 13 4 7 1014.7 1014.0 0.2
21/07:30am 11.6 10.0 8.6 82 1.5 W 7 13 4 7 1014.1 1013.4 0.2
21/07:00am 10.6 8.4 7.8 83 1.4 WNW 9 13 5 7 1013.7 1013.0 0.2
21/06:30am 10.7 8.5 7.8 82 1.4 W 9 13 5 7 1013.2 1012.5 0.2
21/06:00am 10.7 8.4 7.4 80 1.6 W 9 11 5 6 1012.9 1012.2 0.2
21/05:30am 11.2 9.2 7.3 77 1.9 W 7 9 4 5 1012.7 1012.0 0.2
21/05:00am 11.9 9.6 7.6 75 2.1 W 9 13 5 7 1012.4 1011.7 0.2
21/04:30am 12.0 9.3 7.5 74 2.2 W 11 13 6 7 1011.9 1011.1 0.2
21/04:00am 12.2 10.8 7.1 71 2.5 WSW 4 9 2 5 1011.8 1011.0 0.2
21/03:30am 12.0 10.2 7.3 73 2.3 WSW 6 11 3 6 1012.0 1011.2 0.2
21/03:00am 11.8 10.1 7.5 75 2.1 WSW 6 13 3 7 1011.8 1011.0 0.2
21/02:30am 11.7 10.0 7.6 76 2.0 WSW 6 9 3 5 1011.7 1010.9 0.2
21/02:00am 11.9 10.1 7.8 76 2.0 WSW 7 17 4 9 1011.4 1010.7 0.2
21/01:30am 12.0 10.2 7.9 76 2.0 SW 7 11 4 6 1011.2 1010.5 0.2
21/01:00am 12.1 10.5 8.0 76 2.0 WSW 6 13 3 7 1011.0 1010.3 0.2
21/12:30am 12.1 10.3 8.0 76 2.0 SW 7 13 4 7 1010.9 1010.2 0.2
21/12:00am 12.0 9.8 7.9 76 2.0 SW 9 13 5 7 1010.7 1010.0 0.2
 
Date/Time
EDT
Temp
°C
App
Temp
°C
Dew
Point
°C
Rel
Hum
%
Delta-T
°C
Wind Press
QNH
hPa
Press
MSL
hPa
Rain since
9am
mm
Dir  Spd
km/h
Gust
km/h
Spd
kts
Gust
kts
20/11:30pm 11.9 9.7 7.8 76 2.0 SW 9 15 5 8 1010.6 1009.9 0.2
20/11:00pm 11.7 9.4 7.6 76 2.0 SW 9 13 5 7 1010.4 1009.7 0.2
20/10:30pm 11.5 9.2 7.4 76 2.0 SW 9 15 5 8 1010.2 1009.5 0.2
20/10:00pm 12.0 9.7 7.3 73 2.3 SW 9 15 5 8 1009.9 1009.2 0.2
20/09:30pm 12.6 9.9 7.5 71 2.5 SW 11 17 6 9 1009.5 1008.8 0.2
20/09:00pm 13.4 10.5 8.3 71 2.6 SW 13 20 7 11 1009.3 1008.6 0.2
20/08:30pm 13.7 10.0 7.9 68 2.9 SW 17 30 9 16 1008.9 1008.2 0.2
20/08:00pm 14.3 10.2 8.5 68 3.0 SW 20 32 11 17 1008.5 1007.8 0.2
20/07:30pm 15.1 10.7 8.8 66 3.2 SSW 22 35 12 19 1007.8 1007.0 0.2
20/07:00pm 15.9 12.3 8.4 61 3.9 SW 17 28 9 15 1007.3 1006.5 0.2
20/06:30pm 16.1 11.5 8.3 60 4.0 SW 22 32 12 17 1006.6 1005.9 0.2
20/06:00pm 16.9 12.8 8.8 59 4.2 SW 20 32 11 17 1006.1 1005.4 0.2
20/05:30pm 17.0 12.7 9.2 60 4.1 SW 22 33 12 18 1005.8 1005.1 0.2
20/05:00pm 17.3 12.5 9.0 58 4.4 SW 24 39 13 21 1005.3 1004.6 0.2
20/04:30pm 17.7 13.0 9.3 58 4.4 SW 24 33 13 18 1004.7 1003.9 0.2
20/04:00pm 17.6 13.7 9.5 59 4.3 SW 20 32 11 17 1004.4 1003.6 0.2
20/03:30pm 17.6 13.0 9.8 60 4.2 SW 24 41 13 22 1003.9 1003.1 0.2
20/03:00pm 18.2 13.7 10.1 59 4.4 SW 24 35 13 19 1003.5 1002.7 0.2
20/02:30pm 17.0 12.8 9.9 63 3.8 WSW 22 41 12 22 1003.1 1002.3 0.2
20/02:00pm 17.1 11.9 10.2 64 3.7 SW 28 48 15 26 1002.8 1002.0 0.2
20/01:48pm 16.7 11.5 10.1 65 3.5 SW 28 50 15 27 1002.6 1001.9 0.2
20/01:30pm 16.2 11.9 10.7 70 3.0 WSW 24 43 13 23 1002.5 1001.8 0.2
20/01:03pm 16.7 11.4 11.2 70 3.0 SW 30 48 16 26 1002.0 1001.3 0.2

Other Formats:

Comma delimited format used in spreadsheet applications
http://www.bom.gov.au/fwo/IDV60801/IDV60801.94863.axf

JavaScript Object Notation format (JSON) in row-major order
http://www.bom.gov.au/fwo/IDV60801/IDV60801.94863.json